This is the latest recevied weather packets stored in our database for station/object KC0QBU-13. If no packets are shown the sender has not sent any weather packets the latest 10 day(s).
| Time | Temp. | Humidity | Pressure | Rain* | Wind** | Luminosity | Snow |
|---|---|---|---|---|---|---|---|
| 1777308904 | 22.78° C | 73% | 1003 hPa | 0 mm | - | - | - |
| 1777302603 | 17.22° C | 93% | 1002.8 hPa | 0 mm | - | - | - |
| 1777301103 | 16.11° C | 95% | 1003 hPa | 0 mm | - | - | - |
| 1777298704 | 15° C | 95% | 1002.8 hPa | 0 mm | - | - | - |
| 1777296904 | 15° C | 95% | 1003.3 hPa | 0 mm | - | - | - |
| 1777295104 | 15° C | 95% | 1002.9 hPa | 0.25 mm | - | - | - |
| 1777294504 | 15° C | 95% | 1003 hPa | 1.02 mm | - | - | - |
| 1777292403 | 15° C | 94% | 1003.1 hPa | 9.14 mm | - | - | - |
| 1777290304 | 14.44° C | 94% | 1002.7 hPa | 26.16 mm | - | - | - |
| 1777289103 | 14.44° C | 94% | 1002.3 hPa | 20.83 mm | - | - | - |
| 1777287904 | 14.44° C | 92% | 1001.8 hPa | 18.03 mm | - | - | - |
| 1777287604 | 14.44° C | 92% | 1002.5 hPa | 17.27 mm | - | - | - |
| 1777287303 | 15° C | 91% | 1003.2 hPa | 12.7 mm | - | - | - |
| 1777285803 | 16.67° C | 89% | 1001.4 hPa | 0 mm | - | - | - |
| 1777284903 | 16.67° C | 88% | 1000.8 hPa | 0 mm | - | - | - |
| 1777283704 | 18.33° C | 91% | 1002.3 hPa | 0 mm | - | - | - |
| 1777278604 | 17.78° C | 92% | 1000.4 hPa | 0.25 mm | - | - | - |
| 1777278304 | 17.78° C | 92% | 1000.7 hPa | 0.25 mm | - | - | - |
| 1777275304 | 17.22° C | 93% | 1003.6 hPa | 0 mm | - | - | - |
| 1777274703 | 17.22° C | 93% | 1003.4 hPa | 0 mm | - | - | - |
| 1777273504 | 17.22° C | 93% | 1004.7 hPa | 0 mm | - | - | - |
| 1777268704 | 16.67° C | 93% | 1005.6 hPa | 0 mm | - | - | - |
| 1777266903 | 16.67° C | 92% | 1006.2 hPa | 0 mm | - | - | - |
| 1777263903 | 16.67° C | 93% | 1007 hPa | 0 mm | - | - | - |
| 1777263303 | 16.67° C | 93% | 1007.1 hPa | 0 mm | - | - | - |
* Rain latest hour (hover to see other rain measurements)
** Current wind speed in m/s (hover to see current wind gust speed)